Terminal Aerodrome Forecast
Issued by NWS Cleveland, OH

Home | Current Version | Previous Version | Text Only | Print | Product List | Glossary Off
Versions: 1 2 3 4 5 6 7 8 9 10 11 12 13 14 15 16 17 18 19

581
FTUS41 KCLE 241741
TAFYNG
TAF
KYNG 241741Z 2418/2518 12010KT P6SM OVC035
      TEMPO 2418/2422 5SM -SHRA OVC025
     FM242200 12012KT 5SM -SHRA BR OVC015
     FM250200 12012KT 3SM -SHRA OVC008
     FM250900 12007KT 4SM BR VCSH OVC008
     FM251400 18007KT 6SM BR VCSH OVC012=

USA.gov is the U.S. government's official web portal to all federal, state and local government web resources and services.